createdAt,value
2018-06-29T00:01:57.725Z,14.97
2018-06-29T00:04:27.063Z,14.73
2018-06-29T00:06:56.914Z,16.10
2018-06-29T00:09:26.254Z,15.80
2018-06-29T00:11:55.588Z,16.07
2018-06-29T00:14:25.014Z,16.20
2018-06-29T00:16:54.346Z,15.97
2018-06-29T00:19:23.688Z,16.30
2018-06-29T00:21:53.021Z,15.80
2018-06-29T00:24:22.399Z,13.93
2018-06-29T00:26:51.876Z,16.03
2018-06-29T00:29:20.775Z,15.53
2018-06-29T00:31:49.580Z,15.70
2018-06-29T00:34:18.871Z,14.98
2018-06-29T00:36:47.740Z,15.00
2018-06-29T00:39:16.521Z,15.27
2018-06-29T00:41:45.863Z,15.83
2018-06-29T00:44:15.240Z,14.70
2018-06-29T00:46:44.012Z,15.50
2018-06-29T00:49:13.328Z,15.97
2018-06-29T00:51:42.126Z,15.50
2018-06-29T00:54:10.928Z,15.10
2018-06-29T00:56:40.269Z,15.10
2018-06-29T00:59:09.634Z,16.53
2018-06-29T01:01:38.964Z,16.07
2018-06-29T01:04:08.327Z,13.83
2018-06-29T01:06:37.648Z,15.77
2018-06-29T01:09:10.500Z,15.90
2018-06-29T01:11:40.111Z,17.50
2018-06-29T01:14:09.250Z,17.17
2018-06-29T01:16:38.870Z,15.57
2018-06-29T01:19:08.262Z,15.97
2018-06-29T01:21:37.623Z,16.27
2018-06-29T01:24:07.087Z,15.07
2018-06-29T01:26:36.469Z,15.03
2018-06-29T01:29:05.827Z,16.30
2018-06-29T01:31:35.190Z,15.90
2018-06-29T01:34:04.554Z,15.80
2018-06-29T01:36:33.879Z,15.00
2018-06-29T01:39:03.399Z,16.80
2018-06-29T01:41:32.783Z,15.23
2018-06-29T01:44:02.184Z,15.10
2018-06-29T01:46:31.637Z,16.30
2018-06-29T01:49:00.529Z,16.67
2018-06-29T01:51:29.463Z,14.60
2018-06-29T01:53:58.860Z,15.17
2018-06-29T01:56:28.168Z,15.37
2018-06-29T01:58:57.478Z,15.10
2018-06-29T02:01:26.824Z,15.90
2018-06-29T02:03:55.562Z,14.57
2018-06-29T02:06:24.891Z,15.10
2018-06-29T02:08:54.445Z,18.47
2018-06-29T02:11:23.850Z,16.30
2018-06-29T02:13:53.397Z,15.10
2018-06-29T02:16:23.070Z,14.33
2018-06-29T02:18:52.490Z,15.30
2018-06-29T02:21:22.067Z,14.50
2018-06-29T02:23:51.863Z,16.03
2018-06-29T02:26:21.317Z,16.00
2018-06-29T02:28:50.727Z,15.10
2018-06-29T02:31:20.122Z,16.33
2018-06-29T02:33:49.616Z,14.33
2018-06-29T02:36:18.930Z,16.33
2018-06-29T02:38:48.224Z,16.07
2018-06-29T02:41:17.590Z,16.50
2018-06-29T02:43:46.928Z,16.67
2018-06-29T02:46:16.386Z,17.27
2018-06-29T02:48:45.773Z,16.90
2018-06-29T02:51:15.127Z,16.67
2018-06-29T02:53:44.527Z,18.10
2018-06-29T02:56:13.961Z,15.70
2018-06-29T02:58:43.340Z,17.67
2018-06-29T03:01:12.737Z,16.07
2018-06-29T03:03:42.157Z,16.33
2018-06-29T03:06:11.527Z,17.30
2018-06-29T03:08:40.866Z,16.03
2018-06-29T03:11:10.202Z,16.93
2018-06-29T03:13:39.666Z,15.37
2018-06-29T03:16:09.103Z,16.63
2018-06-29T03:18:38.446Z,16.13
2018-06-29T03:21:07.817Z,15.37
2018-06-29T03:23:37.173Z,15.00
2018-06-29T03:26:06.538Z,15.43
2018-06-29T03:28:36.023Z,15.30
2018-06-29T03:31:05.515Z,16.13
2018-06-29T03:33:34.862Z,16.93
2018-06-29T03:36:04.219Z,15.33
2018-06-29T03:38:33.626Z,14.87
2018-06-29T03:41:02.997Z,14.40
2018-06-29T03:43:32.439Z,14.97
2018-06-29T03:46:01.763Z,15.32
2018-06-29T03:48:31.130Z,16.10
2018-06-29T03:51:00.046Z,15.03
2018-06-29T03:53:29.438Z,15.47
2018-06-29T03:55:58.797Z,18.80
2018-06-29T03:58:28.137Z,17.57
2018-06-29T04:00:57.495Z,18.33
2018-06-29T04:03:26.805Z,16.50
2018-06-29T04:05:56.151Z,19.97
2018-06-29T04:08:25.467Z,18.23
2018-06-29T04:10:54.755Z,16.80
2018-06-29T04:13:24.160Z,17.33
2018-06-29T04:15:53.684Z,16.77
2018-06-29T04:18:23.005Z,19.57
2018-06-29T04:20:52.363Z,17.40
2018-06-29T04:23:21.829Z,18.17
2018-06-29T04:25:50.629Z,16.63
2018-06-29T04:28:19.394Z,17.30
2018-06-29T04:30:48.699Z,18.30
2018-06-29T04:33:17.447Z,21.03
2018-06-29T04:35:46.796Z,21.50
2018-06-29T04:38:15.590Z,23.20
2018-06-29T04:40:44.918Z,21.80
2018-06-29T04:43:14.270Z,20.10
2018-06-29T04:45:43.562Z,23.37
2018-06-29T04:48:12.841Z,22.27
2018-06-29T04:50:42.240Z,21.13
2018-06-29T04:53:11.598Z,21.77
2018-06-29T04:55:40.422Z,24.20
2018-06-29T04:58:09.842Z,21.60
2018-06-29T05:00:39.193Z,21.70
2018-06-29T05:03:09.193Z,20.13
2018-06-29T05:05:38.527Z,21.50
2018-06-29T05:08:07.872Z,21.40
2018-06-29T05:10:37.189Z,20.90
2018-06-29T05:13:06.048Z,21.60
2018-06-29T05:15:35.403Z,20.13
2018-06-29T05:18:04.762Z,20.60
2018-06-29T05:20:34.074Z,20.47
2018-06-29T05:23:03.404Z,20.50
2018-06-29T05:25:32.787Z,19.70
2018-06-29T05:28:02.192Z,19.27
2018-06-29T05:30:31.001Z,19.37
2018-06-29T05:33:00.469Z,18.50
2018-06-29T05:35:29.953Z,18.60
2018-06-29T05:37:59.309Z,19.80
2018-06-29T05:40:28.775Z,18.23
2018-06-29T05:42:58.087Z,18.67
2018-06-29T05:45:27.442Z,19.63
2018-06-29T05:47:56.792Z,19.67
2018-06-29T05:50:26.140Z,18.80
2018-06-29T05:52:55.584Z,19.37
2018-06-29T05:55:24.918Z,18.60
2018-06-29T05:57:54.231Z,18.63
2018-06-29T06:00:24.097Z,20.90
2018-06-29T06:02:53.632Z,19.60
2018-06-29T06:05:22.426Z,20.07
2018-06-29T06:07:51.202Z,19.97
2018-06-29T06:10:20.001Z,20.33
2018-06-29T06:12:48.942Z,21.73
2018-06-29T06:15:18.372Z,18.77
2018-06-29T06:17:47.763Z,20.50
2018-06-29T06:20:17.264Z,19.20
2018-06-29T06:22:46.701Z,22.00
2018-06-29T06:25:16.064Z,23.40
2018-06-29T06:27:45.415Z,23.40
2018-06-29T06:30:14.805Z,22.33
2018-06-29T06:32:43.560Z,20.97
2018-06-29T06:35:12.926Z,22.50
2018-06-29T06:37:42.271Z,22.07
2018-06-29T06:40:11.591Z,20.63
2018-06-29T06:42:40.374Z,24.07
2018-06-29T06:45:09.225Z,22.43
2018-06-29T06:47:38.584Z,23.10
2018-06-29T06:50:07.930Z,22.57
2018-06-29T06:52:37.259Z,22.70
2018-06-29T06:55:06.053Z,22.10
2018-06-29T06:57:35.354Z,21.97
2018-06-29T07:00:04.364Z,22.03
2018-06-29T07:02:33.715Z,23.20
2018-06-29T07:05:03.134Z,23.07
2018-06-29T07:07:32.879Z,21.67
2018-06-29T07:10:02.267Z,21.80
2018-06-29T07:12:31.143Z,22.37
2018-06-29T07:15:00.054Z,22.07
2018-06-29T07:17:28.886Z,23.27
2018-06-29T07:19:58.197Z,21.77
2018-06-29T07:22:27.534Z,22.00
2018-06-29T07:24:56.298Z,22.10
2018-06-29T07:27:25.645Z,20.90
2018-06-29T07:29:55.005Z,21.03
2018-06-29T07:32:24.363Z,19.93
2018-06-29T07:34:53.666Z,22.03
2018-06-29T07:37:22.977Z,20.50
2018-06-29T07:39:52.270Z,20.80
2018-06-29T07:42:21.690Z,20.00
2018-06-29T07:44:51.138Z,18.20
2018-06-29T07:47:19.896Z,19.83
2018-06-29T07:49:49.246Z,20.07
2018-06-29T07:52:18.622Z,20.30
2018-06-29T07:54:47.351Z,20.30
2018-06-29T07:57:16.674Z,19.10
2018-06-29T07:59:46.058Z,20.57
2018-06-29T08:02:15.374Z,19.10
2018-06-29T08:04:44.697Z,20.50
2018-06-29T08:07:14.048Z,19.70
2018-06-29T08:09:43.404Z,19.60
2018-06-29T08:12:12.711Z,20.07
2018-06-29T08:14:41.501Z,21.53
2018-06-29T08:17:10.275Z,21.97
2018-06-29T08:19:39.611Z,21.87
2018-06-29T08:22:08.989Z,21.00
2018-06-29T08:24:42.039Z,20.00
2018-06-29T08:27:11.385Z,21.70
2018-06-29T08:29:40.257Z,20.80
2018-06-29T08:32:09.605Z,21.60
2018-06-29T08:34:38.914Z,21.10
2018-06-29T08:37:08.202Z,20.40
2018-06-29T08:39:37.923Z,22.40
2018-06-29T08:42:07.339Z,20.30
2018-06-29T08:44:36.655Z,19.37
2018-06-29T08:47:06.126Z,19.67
2018-06-29T08:49:34.959Z,20.80
2018-06-29T08:52:04.385Z,19.67
2018-06-29T08:54:33.802Z,19.57
2018-06-29T08:57:03.194Z,20.00
2018-06-29T08:59:31.953Z,19.07
2018-06-29T09:02:01.344Z,17.60
2018-06-29T09:04:30.778Z,20.37
2018-06-29T09:07:00.216Z,18.07
2018-06-29T09:09:29.652Z,18.30
2018-06-29T09:11:59.007Z,19.40
2018-06-29T09:14:28.348Z,18.17
2018-06-29T09:16:57.739Z,19.70
2018-06-29T09:19:27.146Z,17.77
2018-06-29T09:21:56.492Z,19.10
2018-06-29T09:24:25.380Z,20.07
2018-06-29T09:26:54.722Z,21.30
2018-06-29T09:29:24.059Z,21.13
2018-06-29T09:31:53.555Z,19.97
2018-06-29T09:34:22.956Z,20.20
2018-06-29T09:36:52.327Z,23.07
2018-06-29T09:39:21.745Z,19.30
2018-06-29T09:41:51.189Z,19.37
2018-06-29T09:44:20.111Z,18.63
2018-06-29T09:46:49.427Z,19.90
2018-06-29T09:49:18.787Z,21.07
2018-06-29T09:51:48.350Z,19.70
2018-06-29T09:54:17.686Z,19.53
2018-06-29T09:56:47.115Z,21.03
2018-06-29T09:59:16.494Z,20.90
2018-06-29T10:01:45.813Z,21.27
2018-06-29T10:04:14.635Z,20.90
2018-06-29T10:06:44.108Z,21.70
2018-06-29T10:09:13.453Z,21.05
2018-06-29T10:11:42.869Z,24.37
2018-06-29T10:14:12.268Z,23.00
2018-06-29T10:16:41.588Z,23.13
2018-06-29T10:19:10.970Z,21.13
2018-06-29T10:21:40.373Z,25.47
2018-06-29T10:24:09.823Z,24.27
2018-06-29T10:26:39.242Z,21.53
2018-06-29T10:29:08.610Z,24.80
2018-06-29T10:31:38.097Z,23.87
2018-06-29T10:34:07.622Z,23.27
2018-06-29T10:36:37.012Z,23.60
2018-06-29T10:39:10.202Z,22.00
2018-06-29T10:41:39.863Z,22.40
2018-06-29T10:44:09.610Z,23.47
2018-06-29T10:46:39.759Z,24.30
2018-06-29T10:49:09.242Z,22.57
2018-06-29T10:51:39.068Z,23.50
2018-06-29T10:54:08.607Z,23.20
2018-06-29T10:56:38.152Z,23.27
2018-06-29T10:59:07.610Z,29.33
2018-06-29T11:01:37.014Z,22.20
2018-06-29T11:04:06.645Z,22.87
2018-06-29T11:06:36.084Z,24.90
2018-06-29T11:09:09.265Z,24.33
2018-06-29T11:11:39.210Z,21.97
2018-06-29T11:14:09.289Z,22.60
2018-06-29T11:16:38.978Z,20.23
2018-06-29T11:19:08.417Z,26.30
2018-06-29T11:21:38.217Z,21.67
2018-06-29T11:24:07.734Z,18.30
2018-06-29T11:26:37.154Z,18.80
2018-06-29T11:29:06.064Z,19.30
2018-06-29T11:31:34.889Z,18.60
2018-06-29T11:34:04.395Z,19.93
2018-06-29T11:36:33.968Z,19.73
2018-06-29T11:39:03.861Z,21.67
2018-06-29T11:41:33.307Z,19.80
2018-06-29T11:44:02.721Z,19.20
2018-06-29T11:46:43.898Z,19.00
2018-06-29T11:49:30.574Z,19.83
2018-06-29T11:52:00.036Z,20.53
2018-06-29T11:54:29.434Z,21.57
2018-06-29T11:56:58.866Z,20.80
2018-06-29T11:59:28.348Z,21.40
2018-06-29T12:01:57.718Z,22.50
2018-06-29T12:04:27.151Z,18.70
2018-06-29T12:06:56.538Z,20.43
2018-06-29T12:09:29.282Z,20.10
2018-06-29T12:11:59.183Z,21.37
2018-06-29T12:14:28.653Z,20.93
2018-06-29T12:16:58.040Z,18.57
2018-06-29T12:19:27.496Z,20.80
2018-06-29T12:21:56.253Z,24.27
2018-06-29T12:24:25.564Z,22.37
2018-06-29T12:26:54.372Z,21.23
2018-06-29T12:29:23.245Z,20.80
2018-06-29T12:31:52.573Z,22.17
2018-06-29T12:34:22.170Z,21.07
2018-06-29T12:36:51.543Z,20.83
2018-06-29T12:39:20.828Z,21.30
2018-06-29T12:41:50.306Z,21.70
2018-06-29T12:44:19.734Z,18.90
2018-06-29T12:46:49.108Z,20.30
2018-06-29T12:49:18.526Z,22.57
2018-06-29T12:51:47.906Z,20.50
2018-06-29T12:54:17.278Z,21.53
2018-06-29T12:56:46.745Z,21.60
2018-06-29T12:59:16.158Z,18.73
2018-06-29T13:01:45.536Z,21.00
2018-06-29T13:04:14.970Z,20.50
2018-06-29T13:06:44.361Z,19.57
2018-06-29T13:09:13.632Z,19.83
2018-06-29T13:11:43.056Z,24.10
2018-06-29T13:14:12.425Z,20.60
2018-06-29T13:16:41.822Z,16.80
2018-06-29T13:19:11.298Z,19.70
2018-06-29T13:21:41.362Z,19.80
2018-06-29T13:24:13.317Z,18.80
2018-06-29T13:26:42.238Z,19.07
2018-06-29T13:29:13.391Z,19.37
2018-06-29T13:31:42.721Z,19.57
2018-06-29T13:34:12.987Z,20.30
2018-06-29T13:36:42.431Z,19.90
2018-06-29T13:39:12.234Z,21.10
2018-06-29T13:41:41.970Z,17.60
2018-06-29T13:44:10.905Z,17.33
2018-06-29T13:46:40.277Z,17.93
2018-06-29T13:49:15.297Z,17.30
2018-06-29T13:51:46.110Z,18.70
2018-06-29T13:54:18.405Z,18.30
2018-06-29T13:57:40.292Z,15.63
2018-06-29T14:00:09.817Z,16.57
2018-06-29T14:02:40.249Z,18.60
2018-06-29T14:05:10.019Z,21.60
2018-06-29T14:07:39.388Z,19.07
2018-06-29T14:10:08.803Z,19.07
2018-06-29T14:12:38.401Z,20.17
2018-06-29T14:15:07.859Z,17.30
2018-06-29T14:17:37.327Z,16.07
2018-06-29T14:20:07.006Z,17.57
2018-06-29T14:22:36.346Z,16.23
2018-06-29T14:25:05.831Z,17.33
2018-06-29T14:27:35.143Z,16.57
2018-06-29T14:30:04.619Z,19.00
2018-06-29T14:32:33.965Z,17.53
2018-06-29T14:35:03.295Z,17.50
2018-06-29T14:37:33.343Z,19.10
2018-06-29T14:40:02.787Z,19.60
2018-06-29T14:42:32.096Z,15.57
2018-06-29T14:45:01.402Z,17.93
2018-06-29T14:47:30.790Z,17.73
2018-06-29T14:50:00.387Z,17.63
2018-06-29T14:52:29.785Z,18.70
2018-06-29T14:54:59.166Z,18.83
2018-06-29T14:57:28.512Z,18.47
2018-06-29T14:59:57.820Z,16.80
2018-06-29T15:02:27.248Z,19.07
2018-06-29T15:04:56.551Z,17.80
2018-06-29T15:07:25.866Z,18.03
2018-06-29T15:09:55.217Z,17.77
2018-06-29T15:12:24.559Z,18.03
2018-06-29T15:14:53.433Z,18.33
2018-06-29T15:17:22.803Z,18.83
2018-06-29T15:19:52.106Z,18.20
2018-06-29T15:22:21.424Z,17.13
2018-06-29T15:24:50.854Z,17.25
2018-06-29T15:27:20.299Z,17.40
2018-06-29T15:29:49.713Z,17.60
2018-06-29T15:32:19.073Z,19.03
2018-06-29T15:34:48.451Z,18.70
2018-06-29T15:37:17.280Z,17.90
2018-06-29T15:39:46.736Z,16.70
2018-06-29T15:42:16.049Z,14.60
2018-06-29T15:44:44.838Z,16.00
2018-06-29T15:47:14.776Z,16.43
2018-06-29T15:49:44.086Z,18.53
2018-06-29T15:52:13.382Z,16.17
2018-06-29T15:54:42.727Z,18.40
2018-06-29T15:57:12.058Z,17.87
2018-06-29T15:59:41.382Z,18.03
2018-06-29T16:02:11.537Z,19.30
2018-06-29T16:04:40.947Z,17.93
2018-06-29T16:07:10.462Z,17.40
2018-06-29T16:09:40.101Z,17.90
2018-06-29T16:12:09.547Z,18.67
2018-06-29T16:14:39.016Z,17.80
2018-06-29T16:17:08.475Z,17.37
2018-06-29T16:19:37.893Z,18.67
2018-06-29T16:22:07.372Z,17.67
2018-06-29T16:24:36.974Z,17.23
2018-06-29T16:27:06.379Z,18.30
2018-06-29T16:29:35.733Z,18.40
2018-06-29T16:32:05.130Z,18.40
2018-06-29T16:34:34.726Z,16.83
2018-06-29T16:37:04.302Z,18.30
2018-06-29T16:39:33.658Z,17.70
2018-06-29T16:42:03.000Z,18.00
2018-06-29T16:44:32.352Z,18.10
2018-06-29T16:47:01.704Z,18.10
2018-06-29T16:49:31.035Z,16.93
2018-06-29T16:51:59.900Z,15.03
2018-06-29T16:54:29.292Z,16.87
2018-06-29T16:56:58.692Z,17.23
2018-06-29T16:59:28.063Z,19.70
2018-06-29T17:01:57.476Z,17.90
2018-06-29T17:04:26.887Z,17.77
2018-06-29T17:06:56.302Z,17.20
2018-06-29T17:09:25.659Z,16.83
2018-06-29T17:11:55.098Z,16.50
2018-06-29T17:14:24.915Z,18.00
2018-06-29T17:16:54.207Z,16.70
2018-06-29T17:19:23.573Z,19.33
2018-06-29T17:21:52.923Z,15.27
2018-06-29T17:24:22.311Z,17.93
2018-06-29T17:26:51.872Z,18.10
2018-06-29T17:29:20.751Z,18.13
2018-06-29T17:31:50.222Z,16.33
2018-06-29T17:34:19.901Z,16.97
2018-06-29T17:36:49.305Z,16.53
2018-06-29T17:39:18.743Z,17.37
2018-06-29T17:41:48.191Z,16.67
2018-06-29T17:44:17.112Z,16.97
2018-06-29T17:46:46.715Z,16.70
2018-06-29T17:49:15.992Z,17.87
2018-06-29T17:51:44.785Z,17.53
2018-06-29T17:54:13.656Z,17.33
2018-06-29T17:56:43.058Z,18.57
2018-06-29T17:59:11.916Z,19.00
2018-06-29T18:01:41.436Z,19.03
2018-06-29T18:04:10.885Z,19.40
2018-06-29T18:06:40.338Z,18.90
2018-06-29T18:09:11.334Z,17.40
2018-06-29T18:11:40.972Z,18.43
2018-06-29T18:14:10.421Z,18.90
2018-06-29T18:16:39.935Z,17.40
2018-06-29T18:19:09.305Z,16.70
2018-06-29T18:21:38.741Z,17.80
2018-06-29T18:24:09.573Z,18.97
2018-06-29T18:26:38.442Z,17.47
2018-06-29T18:29:07.858Z,19.03
2018-06-29T18:31:36.806Z,19.33
2018-06-29T18:34:06.232Z,17.43
2018-06-29T18:36:35.567Z,17.50
2018-06-29T18:39:06.946Z,21.00
2018-06-29T18:41:36.298Z,18.77
2018-06-29T18:44:05.111Z,18.93
2018-06-29T18:46:34.505Z,20.00
2018-06-29T18:49:03.921Z,27.20
2018-06-29T18:51:33.248Z,22.47
2018-06-29T18:54:02.611Z,24.00
2018-06-29T18:56:31.890Z,25.17
2018-06-29T18:59:00.680Z,26.97
2018-06-29T19:01:30.103Z,41.80
2018-06-29T19:03:59.527Z,28.47
2018-06-29T19:06:28.936Z,24.30
2018-06-29T19:08:58.365Z,23.00
2018-06-29T19:11:27.755Z,22.57
2018-06-29T19:13:57.571Z,23.73
2018-06-29T19:16:26.943Z,20.40
2018-06-29T19:18:56.367Z,20.13
2018-06-29T19:21:25.721Z,20.73
2018-06-29T19:23:55.107Z,21.03
2018-06-29T19:26:23.917Z,20.87
2018-06-29T19:28:52.754Z,21.40
2018-06-29T19:31:22.300Z,21.03
2018-06-29T19:33:51.647Z,19.30
2018-06-29T19:36:21.013Z,19.70
2018-06-29T19:38:49.915Z,18.80
2018-06-29T19:41:19.464Z,19.43
2018-06-29T19:43:48.913Z,19.30
2018-06-29T19:46:17.806Z,20.30
2018-06-29T19:48:46.833Z,19.57
2018-06-29T19:51:16.189Z,19.77
2018-06-29T19:53:45.594Z,18.90
2018-06-29T19:56:14.448Z,20.53
2018-06-29T19:58:43.937Z,20.07
2018-06-29T20:01:13.251Z,20.97
2018-06-29T20:03:42.527Z,21.93
2018-06-29T20:06:12.053Z,19.70
2018-06-29T20:08:41.463Z,18.93
2018-06-29T20:11:10.855Z,17.10
2018-06-29T20:13:40.191Z,16.33
2018-06-29T20:16:09.815Z,15.60
2018-06-29T20:18:39.112Z,13.63
2018-06-29T20:21:07.983Z,14.43
2018-06-29T20:23:37.948Z,14.03
2018-06-29T20:26:07.550Z,14.03
2018-06-29T20:28:37.027Z,13.43
2018-06-29T20:31:05.814Z,13.40
2018-06-29T20:33:34.554Z,14.47
2018-06-29T20:36:04.002Z,11.90
2018-06-29T20:38:32.809Z,14.47
2018-06-29T20:41:02.185Z,12.93
2018-06-29T20:43:31.798Z,12.83
2018-06-29T20:46:01.214Z,13.17
2018-06-29T20:48:30.655Z,12.80
2018-06-29T20:51:00.161Z,13.43
2018-06-29T20:53:29.597Z,12.03
2018-06-29T20:55:58.951Z,12.07
2018-06-29T20:58:28.361Z,13.50
2018-06-29T21:00:57.742Z,13.60
2018-06-29T21:03:27.169Z,14.10
2018-06-29T21:05:56.581Z,13.27
2018-06-29T21:08:26.053Z,12.30
2018-06-29T21:10:55.421Z,12.90
2018-06-29T21:13:24.182Z,13.83
2018-06-29T21:15:53.666Z,13.23
2018-06-29T21:18:23.021Z,14.57
2018-06-29T21:20:51.780Z,13.60
2018-06-29T21:23:22.327Z,14.00
2018-06-29T21:25:58.706Z,13.20
2018-06-29T21:28:27.535Z,13.70
2018-06-29T21:30:57.239Z,14.07
2018-06-29T21:33:26.763Z,14.43
2018-06-29T21:35:56.132Z,14.00
2018-06-29T21:38:25.527Z,13.77
2018-06-29T21:40:56.201Z,13.80
2018-06-29T21:43:25.571Z,14.70
2018-06-29T21:45:54.915Z,14.47
2018-06-29T21:48:24.338Z,13.10
2018-06-29T21:50:53.694Z,15.00
2018-06-29T21:53:23.003Z,13.63
2018-06-29T21:55:52.414Z,13.23
2018-06-29T21:58:21.755Z,15.23
2018-06-29T22:00:53.340Z,13.77
2018-06-29T22:03:23.423Z,13.63
2018-06-29T22:05:52.756Z,14.70
2018-06-29T22:08:22.071Z,15.63
2018-06-29T22:10:51.400Z,14.60
2018-06-29T22:13:20.743Z,14.50
2018-06-29T22:15:51.068Z,15.17
2018-06-29T22:18:20.408Z,14.80
2018-06-29T22:20:49.925Z,14.33
2018-06-29T22:23:19.383Z,15.10
2018-06-29T22:25:48.827Z,14.87
2018-06-29T22:28:18.264Z,14.00
2018-06-29T22:30:48.599Z,14.10
2018-06-29T22:33:18.014Z,14.40
2018-06-29T22:35:47.416Z,15.10
2018-06-29T22:38:16.900Z,13.80
2018-06-29T22:40:45.657Z,14.87
2018-06-29T22:43:15.037Z,15.43
2018-06-29T22:45:44.442Z,13.83
2018-06-29T22:48:13.759Z,13.73
2018-06-29T22:50:43.074Z,12.97
2018-06-29T22:53:12.861Z,13.57
2018-06-29T22:55:42.451Z,14.27
2018-06-29T22:58:11.843Z,14.87
2018-06-29T23:00:41.180Z,14.40
2018-06-29T23:03:11.904Z,15.37
2018-06-29T23:05:41.270Z,14.93
2018-06-29T23:08:11.706Z,13.50
2018-06-29T23:10:41.099Z,14.80
2018-06-29T23:13:10.525Z,14.10
2018-06-29T23:15:39.894Z,12.90
2018-06-29T23:18:08.685Z,13.20
2018-06-29T23:20:38.034Z,14.67
2018-06-29T23:23:07.461Z,14.50
2018-06-29T23:25:36.850Z,14.77
2018-06-29T23:28:06.343Z,15.43
2018-06-29T23:30:35.641Z,14.63
2018-06-29T23:33:04.970Z,14.47
2018-06-29T23:35:34.318Z,15.00
2018-06-29T23:38:03.643Z,15.70
2018-06-29T23:40:32.936Z,14.50
2018-06-29T23:43:02.267Z,16.33
2018-06-29T23:45:31.654Z,15.23
2018-06-29T23:48:00.992Z,16.70
2018-06-29T23:50:29.762Z,15.17
2018-06-29T23:52:59.210Z,15.73
2018-06-29T23:55:28.613Z,15.60
2018-06-29T23:57:58.108Z,14.77
